Time;durP1;ratioP1;P1;durP2;ratioP2;P2;SDS_P1;SDS_P2;PMS_P1;PMS_P2;Temp;Humidity;BMP_temperature;BMP_pressure;BME280_temperature;BME280_humidity;BME280_pressure;Samples;Min_cycle;Max_cycle;Signal;HPM_P1;HPM_P2
2022/05/27 00:00:06;;;;;;;;;;;;;;;15.14;58.55;99906.27;106461;1271;96475;-70
2022/05/27 00:02:54;;;;;;;;;;;;;;;15.11;58.57;99898.69;107860;1268;124150;-71
2022/05/27 00:05:21;;;;;;;;;;;;;;;15.09;58.54;99890.09;107968;1267;94823;-71
2022/05/27 00:07:48;;;;;;;;;;;;;;;15.07;58.60;99892.78;106745;1267;123809;-71
2022/05/27 00:10:16;;;;;;;;;;;;;;;15.05;58.61;99893.23;106483;1268;96461;-70
2022/05/27 00:12:43;;;;;;;;;;;;;;;15.03;58.70;99890.92;106502;1268;96364;-71
2022/05/27 00:15:11;;;;;;;;;;;;;;;15.01;58.79;99893.64;106357;1268;123550;-69
2022/05/27 00:17:39;;;;;;;;;;;;;;;15.00;58.78;99895.84;106476;1268;109031;-70
2022/05/27 00:20:08;;;;;;;;;;;;;;;14.97;58.97;99895.10;106416;1268;123892;-70
2022/05/27 00:22:35;;;;;;;;;;;;;;;14.93;58.90;99885.05;107973;1266;94846;-70
2022/05/27 00:25:04;;;;;;;;;;;;;;;14.92;59.17;99885.10;106941;1268;123965;-70
2022/05/27 00:27:31;;;;;;;;;;;;;;;14.88;59.15;99879.54;108032;1267;110225;-71
2022/05/27 00:29:59;;;;;;;;;;;;;;;14.86;59.16;99876.51;107163;1268;108618;-71
2022/05/27 00:32:30;;;;;;;;;;;;;;;14.82;59.09;99871.09;107077;1267;123987;-71
2022/05/27 00:34:57;;;;;;;;;;;;;;;14.81;59.20;99865.54;106525;1268;96468;-71
2022/05/27 00:37:26;;;;;;;;;;;;;;;14.79;59.20;99869.02;106744;1268;123759;-71
2022/05/27 00:39:53;;;;;;;;;;;;;;;14.77;59.27;99864.21;108000;1268;94397;-70
2022/05/27 00:42:21;;;;;;;;;;;;;;;14.76;59.33;99864.64;107980;1268;108883;-70
2022/05/27 00:44:48;;;;;;;;;;;;;;;14.74;59.26;99862.10;107865;1268;125395;-70
2022/05/27 00:47:17;;;;;;;;;;;;;;;14.74;59.38;99858.11;108043;1267;94811;-70
2022/05/27 00:49:46;;;;;;;;;;;;;;;14.73;59.28;99855.33;106569;1268;123843;-69
2022/05/27 00:52:16;;;;;;;;;;;;;;;14.74;59.11;99854.08;106455;1268;111220;-70
2022/05/27 00:54:44;;;;;;;;;;;;;;;14.73;59.02;99851.30;106412;1270;109100;-70
2022/05/27 00:57:22;;;;;;;;;;;;;;;14.72;59.06;99851.52;106344;1268;124019;-71
2022/05/27 00:59:53;;;;;;;;;;;;;;;14.71;59.07;99856.13;106472;1268;96451;-71
2022/05/27 01:02:20;;;;;;;;;;;;;;;14.71;59.19;99853.16;106469;1268;123581;-69
2022/05/27 01:04:49;;;;;;;;;;;;;;;14.71;59.13;99852.64;106550;1268;111195;-69
2022/05/27 01:07:16;;;;;;;;;;;;;;;14.70;59.25;99851.61;106503;1268;124324;-71
2022/05/27 01:09:47;;;;;;;;;;;;;;;14.70;59.26;99852.67;106540;1268;108911;-70
2022/05/27 01:12:24;;;;;;;;;;;;;;;14.71;59.20;99852.66;106523;1268;96577;-70
2022/05/27 01:15:01;;;;;;;;;;;;;;;14.70;59.32;99851.64;106493;1267;123632;-69
2022/05/27 01:17:39;;;;;;;;;;;;;;;14.69;59.41;99847.52;106420;1270;110966;-70
2022/05/27 01:20:21;;;;;;;;;;;;;;;14.70;59.45;99848.70;107773;1270;124190;-70
2022/05/27 01:23:12;;;;;;;;;;;;;;;14.68;59.56;99847.04;107368;1267;107758;-69
2022/05/27 01:26:05;;;;;;;;;;;;;;;14.66;59.57;99843.46;106845;1268;123780;-69
2022/05/27 01:28:37;;;;;;;;;;;;;;;14.65;59.64;99838.45;107633;1268;94644;-70
2022/05/27 01:31:09;;;;;;;;;;;;;;;14.64;59.68;99836.77;106333;1268;123810;-69
2022/05/27 01:33:41;;;;;;;;;;;;;;;14.62;59.82;99825.17;107928;1269;108696;-71
2022/05/27 01:36:14;;;;;;;;;;;;;;;14.60;59.83;99817.04;107973;1265;108407;-70
2022/05/27 01:38:44;;;;;;;;;;;;;;;14.60;59.90;99809.89;107881;1268;123957;-70
2022/05/27 01:41:16;;;;;;;;;;;;;;;14.58;60.14;99802.83;106762;1268;96478;-69
2022/05/27 01:43:47;;;;;;;;;;;;;;;14.58;60.20;99798.95;106317;1270;123963;-69
2022/05/27 01:46:16;;;;;;;;;;;;;;;14.59;60.22;99792.98;106483;1268;108288;-70
2022/05/27 01:48:51;;;;;;;;;;;;;;;14.57;60.15;99783.79;106421;1268;107695;-70
2022/05/27 01:51:23;;;;;;;;;;;;;;;14.57;60.28;99773.29;106468;1268;96473;-70
2022/05/27 01:53:54;;;;;;;;;;;;;;;14.57;60.34;99773.15;106500;1267;96466;-70
2022/05/27 01:56:25;;;;;;;;;;;;;;;14.55;60.44;99773.27;106366;1268;123653;-70
2022/05/27 01:58:55;;;;;;;;;;;;;;;14.56;60.52;99769.55;106443;1270;109144;-69
2022/05/27 02:01:25;;;;;;;;;;;;;;;14.56;60.60;99767.95;107083;1267;125866;-69
2022/05/27 02:03:54;;;;;;;;;;;;;;;14.54;60.64;99765.77;106499;1268;96499;-69
2022/05/27 02:06:25;;;;;;;;;;;;;;;14.52;60.75;99764.09;108015;1268;94927;-70
2022/05/27 02:08:54;;;;;;;;;;;;;;;14.50;60.71;99767.72;107903;1268;124265;-70
2022/05/27 02:11:23;;;;;;;;;;;;;;;14.49;60.83;99772.33;106652;1268;108564;-69
2022/05/27 02:13:53;;;;;;;;;;;;;;;14.50;60.80;99773.83;106386;1268;124792;-70
2022/05/27 02:16:23;;;;;;;;;;;;;;;14.51;60.78;99769.23;106480;1268;96494;-69
2022/05/27 02:18:53;;;;;;;;;;;;;;;14.50;60.85;99760.37;106395;1268;123896;-69
2022/05/27 02:21:21;;;;;;;;;;;;;;;14.48;60.85;99755.21;106512;1268;111129;-70
2022/05/27 02:23:50;;;;;;;;;;;;;;;14.48;60.95;99754.37;106472;1268;107646;-70
2022/05/27 02:26:20;;;;;;;;;;;;;;;14.47;60.92;99754.22;106405;1268;123930;-72
2022/05/27 02:28:50;;;;;;;;;;;;;;;14.47;60.93;99754.41;106466;1268;96482;-69
2022/05/27 02:31:20;;;;;;;;;;;;;;;14.47;60.87;99749.86;106724;1267;125540;-69
2022/05/27 02:36:38;;;;;;;;;;;;;;;14.50;60.62;99747.61;106525;1268;108957;-70
2022/05/27 02:39:07;;;;;;;;;;;;;;;14.50;60.54;99744.79;106411;1268;124383;-70
2022/05/27 02:41:38;;;;;;;;;;;;;;;14.53;60.63;99746.92;106506;1268;96483;-69
2022/05/27 02:44:14;;;;;;;;;;;;;;;14.55;60.37;99739.51;106464;1268;123635;-69
2022/05/27 02:46:49;;;;;;;;;;;;;;;14.55;60.40;99736.66;106472;1268;109847;-69
2022/05/27 02:49:21;;;;;;;;;;;;;;;14.55;60.40;99727.44;106415;1268;124015;-70
2022/05/27 02:51:54;;;;;;;;;;;;;;;14.55;60.46;99727.42;107863;1268;107744;-69
2022/05/27 02:54:24;;;;;;;;;;;;;;;14.55;60.47;99729.49;106425;1270;96585;-69
2022/05/27 02:56:58;;;;;;;;;;;;;;;14.55;60.44;99729.70;107607;1268;124495;-70
2022/05/27 02:59:26;;;;;;;;;;;;;;;14.55;60.48;99732.33;107967;1268;110104;-70
2022/05/27 03:01:54;;;;;;;;;;;;;;;14.54;60.50;99727.44;106438;1268;123939;-70
2022/05/27 03:04:22;;;;;;;;;;;;;;;14.55;60.50;99723.57;107934;1268;107575;-70
2022/05/27 03:06:59;;;;;;;;;;;;;;;14.54;60.43;99723.92;107801;1270;123868;-70
2022/05/27 03:09:29;;;;;;;;;;;;;;;14.55;60.41;99715.31;107988;1267;94845;-70
2022/05/27 03:12:05;;;;;;;;;;;;;;;14.56;60.29;99712.29;107996;1268;109956;-70
2022/05/27 03:14:50;;;;;;;;;;;;;;;14.58;60.24;99712.40;107885;1268;123764;-70
2022/05/27 03:17:23;;;;;;;;;;;;;;;14.59;60.19;99710.73;107908;1268;109106;-71
2022/05/27 03:19:58;;;;;;;;;;;;;;;14.60;60.22;99704.58;107852;1268;123999;-70
2022/05/27 03:22:31;;;;;;;;;;;;;;;14.62;60.15;99699.37;107799;1268;94779;-70
2022/05/27 03:25:08;;;;;;;;;;;;;;;14.65;60.03;99699.71;106362;1270;123788;-69
2022/05/27 03:27:38;;;;;;;;;;;;;;;14.66;59.81;99696.48;106426;1270;108591;-70
2022/05/27 03:30:08;;;;;;;;;;;;;;;14.66;59.75;99692.98;106455;1270;107611;-69
2022/05/27 03:32:40;;;;;;;;;;;;;;;14.66;59.76;99694.73;106393;1270;123951;-70
2022/05/27 03:35:13;;;;;;;;;;;;;;;14.67;59.62;99695.57;106452;1270;96497;-70
2022/05/27 03:37:43;;;;;;;;;;;;;;;14.66;59.62;99690.88;106377;1270;123759;-70
2022/05/27 03:40:12;;;;;;;;;;;;;;;14.67;59.64;99686.81;106494;1268;109736;-70
2022/05/27 03:42:40;;;;;;;;;;;;;;;14.66;59.50;99682.82;106466;1270;106002;-71
2022/05/27 03:45:10;;;;;;;;;;;;;;;14.67;59.64;99672.66;106643;1267;124958;-70
2022/05/27 03:47:40;;;;;;;;;;;;;;;14.66;59.85;99664.46;106370;1270;96431;-70
2022/05/27 03:50:09;;;;;;;;;;;;;;;14.67;60.13;99667.58;106355;1268;123664;-70
2022/05/27 03:52:39;;;;;;;;;;;;;;;14.68;60.40;99667.47;107999;1268;108006;-70
2022/05/27 03:55:07;;;;;;;;;;;;;;;14.70;60.56;99667.04;107868;1268;124014;-71
2022/05/27 03:57:35;;;;;;;;;;;;;;;14.69;60.77;99661.64;107990;1267;94787;-71
2022/05/27 04:00:03;;;;;;;;;;;;;;;14.69;60.88;99665.52;106722;1270;96479;-70
2022/05/27 04:02:39;;;;;;;;;;;;;;;14.67;61.62;99667.20;106534;1268;123591;-70
2022/05/27 04:05:09;;;;;;;;;;;;;;;14.64;62.04;99657.98;106521;1266;108434;-70
2022/05/27 04:07:36;;;;;;;;;;;;;;;14.60;62.59;99662.95;106731;1268;123911;-70
2022/05/27 04:10:08;;;;;;;;;;;;;;;14.58;62.85;99661.48;106477;1268;96648;-70
2022/05/27 04:12:36;;;;;;;;;;;;;;;14.55;63.42;99652.02;107450;1268;96496;-70
2022/05/27 04:15:05;;;;;;;;;;;;;;;14.52;63.69;99656.15;106425;1268;123576;-70
2022/05/27 04:17:32;;;;;;;;;;;;;;;14.48;63.92;99653.97;107621;1268;108919;-70
2022/05/27 04:20:00;;;;;;;;;;;;;;;14.44;64.43;99655.94;106374;1268;123843;-70
2022/05/27 04:22:28;;;;;;;;;;;;;;;14.41;64.63;99660.27;106460;1268;96488;-69
2022/05/27 04:24:56;;;;;;;;;;;;;;;14.38;65.00;99658.35;106446;1268;123818;-69
2022/05/27 04:27:25;;;;;;;;;;;;;;;14.35;65.28;99658.32;106511;1270;110109;-69
2022/05/27 04:29:54;;;;;;;;;;;;;;;14.34;65.36;99656.33;106460;1270;108296;-70
2022/05/27 04:32:22;;;;;;;;;;;;;;;14.32;65.67;99652.92;107809;1268;125024;-70
2022/05/27 04:34:49;;;;;;;;;;;;;;;14.29;65.80;99653.47;107932;1269;94383;-70
2022/05/27 04:37:17;;;;;;;;;;;;;;;14.27;66.13;99654.44;107849;1268;124127;-70
2022/05/27 04:39:45;;;;;;;;;;;;;;;14.28;66.32;99656.84;107948;1268;110220;-70
2022/05/27 04:42:13;;;;;;;;;;;;;;;14.28;66.48;99653.34;107017;1268;109241;-70
2022/05/27 04:44:41;;;;;;;;;;;;;;;14.29;66.66;99651.70;106346;1268;124371;-69
2022/05/27 04:47:09;;;;;;;;;;;;;;;14.29;66.68;99652.38;106449;1268;96481;-70
2022/05/27 04:49:51;;;;;;;;;;;;;;;14.31;66.75;99648.63;106452;1270;124294;-70
2022/05/27 04:52:19;;;;;;;;;;;;;;;14.33;66.89;99652.33;107976;1268;111200;-70
2022/05/27 04:54:47;;;;;;;;;;;;;;;14.34;66.97;99653.31;106611;1270;107579;-71
2022/05/27 04:57:16;;;;;;;;;;;;;;;14.34;67.07;99652.77;106455;1268;96554;-70
2022/05/27 04:59:46;;;;;;;;;;;;;;;14.34;67.12;99654.02;106438;1270;96548;-69
2022/05/27 05:02:14;;;;;;;;;;;;;;;14.33;67.23;99652.50;106901;1267;124467;-68
2022/05/27 05:04:41;;;;;;;;;;;;;;;14.34;67.46;99651.23;107938;1268;110002;-68
2022/05/27 05:07:09;;;;;;;;;;;;;;;14.34;67.64;99648.77;107869;1268;125052;-69
2022/05/27 05:09:37;;;;;;;;;;;;;;;14.33;67.69;99646.73;107922;1269;107837;-69
2022/05/27 05:12:06;;;;;;;;;;;;;;;14.34;67.90;99641.27;107388;1269;96469;-67
2022/05/27 05:14:33;;;;;;;;;;;;;;;14.36;68.06;99635.74;106590;1268;124708;-69
2022/05/27 05:17:01;;;;;;;;;;;;;;;14.37;68.07;99632.89;106463;1270;96459;-69
2022/05/27 05:19:29;;;;;;;;;;;;;;;14.36;68.39;99627.84;106322;1270;124636;-70
2022/05/27 05:21:56;;;;;;;;;;;;;;;14.36;68.32;99631.70;106439;1270;96858;-70
2022/05/27 05:24:24;;;;;;;;;;;;;;;14.36;68.38;99627.18;106422;1270;96489;-69
2022/05/27 05:26:51;;;;;;;;;;;;;;;14.33;68.44;99624.17;106107;1270;125378;-69
2022/05/27 05:29:19;;;;;;;;;;;;;;;14.32;68.66;99621.81;106374;1270;111547;-70
2022/05/27 05:31:46;;;;;;;;;;;;;;;14.31;68.66;99620.61;106351;1268;125950;-68
2022/05/27 05:34:14;;;;;;;;;;;;;;;14.31;68.89;99619.95;106417;1268;108811;-70
2022/05/27 05:36:41;;;;;;;;;;;;;;;14.28;68.96;99621.31;106496;1268;96594;-70
2022/05/27 05:39:09;;;;;;;;;;;;;;;14.26;69.21;99621.45;106282;1268;124646;-69
2022/05/27 05:41:37;;;;;;;;;;;;;;;14.28;69.38;99612.45;106385;1268;96488;-69
2022/05/27 05:44:07;;;;;;;;;;;;;;;14.25;69.47;99613.33;106278;1267;124465;-69
2022/05/27 05:46:36;;;;;;;;;;;;;;;14.21;69.60;99613.38;106468;1268;108812;-69
2022/05/27 05:49:05;;;;;;;;;;;;;;;14.17;69.69;99616.70;107058;1268;126084;-69
2022/05/27 05:51:33;;;;;;;;;;;;;;;14.14;69.86;99616.02;106521;1268;96485;-70
2022/05/27 05:54:00;;;;;;;;;;;;;;;14.10;70.02;99610.64;106413;1268;111155;-70
2022/05/27 05:56:30;;;;;;;;;;;;;;;14.09;70.42;99603.40;106370;1268;124702;-72
2022/05/27 05:58:57;;;;;;;;;;;;;;;14.07;70.61;99600.88;106400;1268;108468;-70
2022/05/27 06:01:25;;;;;;;;;;;;;;;14.05;70.85;99599.41;106295;1267;124697;-70
2022/05/27 06:03:53;;;;;;;;;;;;;;;14.04;71.02;99592.50;106462;1268;97365;-68
2022/05/27 06:06:20;;;;;;;;;;;;;;;14.03;71.16;99585.91;106493;1268;110142;-70
2022/05/27 06:08:47;;;;;;;;;;;;;;;14.01;71.19;99587.91;106335;1267;125031;-70
2022/05/27 06:11:15;;;;;;;;;;;;;;;14.03;71.37;99582.43;106409;1268;97060;-70
2022/05/27 06:13:43;;;;;;;;;;;;;;;14.03;71.47;99579.63;106279;1268;124522;-71
2022/05/27 06:16:10;;;;;;;;;;;;;;;14.04;71.81;99566.80;106390;1268;96494;-70
2022/05/27 06:18:38;;;;;;;;;;;;;;;14.12;71.86;99568.40;106411;1268;111627;-70
2022/05/27 06:21:06;;;;;;;;;;;;;;;14.23;71.91;99562.01;106363;1268;124491;-70
2022/05/27 06:23:33;;;;;;;;;;;;;;;14.35;71.49;99560.96;106535;1267;108343;-71
2022/05/27 06:26:03;;;;;;;;;;;;;;;14.46;71.59;99562.90;107093;1268;124567;-71
2022/05/27 06:36:50;;;;;;;;;;;;;;;14.84;70.88;99560.33;106386;1268;124647;-70
2022/05/27 06:39:17;;;;;;;;;;;;;;;14.89;70.81;99555.80;106497;1268;96473;-71
2022/05/27 06:41:45;;;;;;;;;;;;;;;14.91;70.82;99554.33;106500;1267;96507;-69
2022/05/27 06:44:12;;;;;;;;;;;;;;;14.94;70.74;99552.05;106454;1268;124332;-71
2022/05/27 06:46:40;;;;;;;;;;;;;;;14.94;70.71;99552.34;106532;1268;96474;-71
2022/05/27 06:49:08;;;;;;;;;;;;;;;14.95;70.74;99549.48;107856;1267;125010;-72
2022/05/27 06:51:36;;;;;;;;;;;;;;;14.99;70.80;99550.31;107951;1267;94717;-72
2022/05/27 06:54:05;;;;;;;;;;;;;;;15.01;70.88;99545.44;107873;1267;94678;-72
2022/05/27 06:56:35;;;;;;;;;;;;;;;15.04;70.78;99546.13;107826;1267;124312;-72
2022/05/27 06:59:02;;;;;;;;;;;;;;;15.10;70.80;99538.45;107860;1267;108128;-69
2022/05/27 07:01:30;;;;;;;;;;;;;;;15.17;70.76;99535.70;107825;1267;125087;-70
2022/05/27 07:03:58;;;;;;;;;;;;;;;15.24;70.71;99528.63;107920;1267;95050;-70
2022/05/27 07:06:27;;;;;;;;;;;;;;;15.32;70.42;99530.36;107977;1267;94605;-70
2022/05/27 07:08:55;;;;;;;;;;;;;;;15.39;70.16;99529.20;107861;1266;124190;-70
2022/05/27 07:11:22;;;;;;;;;;;;;;;15.48;70.07;99522.89;107945;1268;108343;-70
2022/05/27 07:13:50;;;;;;;;;;;;;;;15.56;69.92;99522.00;107798;1267;125381;-70
2022/05/27 07:16:18;;;;;;;;;;;;;;;15.60;69.86;99520.00;107933;1267;94706;-70
2022/05/27 07:18:45;;;;;;;;;;;;;;;15.63;69.71;99522.81;107963;1267;94648;-71
2022/05/27 07:21:13;;;;;;;;;;;;;;;15.61;69.57;99523.48;107954;1267;110220;-71
2022/05/27 07:23:40;;;;;;;;;;;;;;;15.56;69.46;99518.67;107969;1266;107886;-70
2022/05/27 07:26:08;;;;;;;;;;;;;;;15.54;69.57;99518.96;106811;1267;125022;-70
2022/05/27 07:28:35;;;;;;;;;;;;;;;15.53;69.49;99524.31;106401;1268;96453;-71
2022/05/27 07:31:03;;;;;;;;;;;;;;;15.51;69.46;99516.92;106232;1268;124477;-71
2022/05/27 07:33:38;;;;;;;;;;;;;;;15.50;69.40;99515.61;106443;1268;110689;-72
2022/05/27 07:36:05;;;;;;;;;;;;;;;15.46;69.44;99519.73;106428;1268;108483;-71
2022/05/27 07:38:33;;;;;;;;;;;;;;;15.41;69.66;99522.25;106362;1268;125950;-71
2022/05/27 07:41:00;;;;;;;;;;;;;;;15.38;69.54;99518.80;106245;1268;96482;-71
2022/05/27 07:43:28;;;;;;;;;;;;;;;15.36;69.69;99515.73;106406;1268;125110;-71
2022/05/27 07:45:56;;;;;;;;;;;;;;;15.37;69.71;99514.10;106487;1268;112569;-72
2022/05/27 07:48:24;;;;;;;;;;;;;;;15.38;69.78;99511.60;106508;1268;108982;-72
2022/05/27 07:50:51;;;;;;;;;;;;;;;15.40;69.82;99512.70;106495;1267;124481;-72
2022/05/27 07:53:19;;;;;;;;;;;;;;;15.39;69.62;99505.04;106569;1268;96477;-71
2022/05/27 07:55:47;;;;;;;;;;;;;;;15.43;69.62;99506.91;106519;1268;124589;-71
2022/05/27 07:58:14;;;;;;;;;;;;;;;15.41;69.53;99508.92;106357;1268;112739;-72
2022/05/27 08:00:42;;;;;;;;;;;;;;;15.41;69.65;99503.02;106457;1268;96363;-72
2022/05/27 08:03:12;;;;;;;;;;;;;;;15.41;69.50;99498.60;106373;1268;124283;-72
2022/05/27 08:05:40;;;;;;;;;;;;;;;15.43;69.52;99496.93;107994;1267;94742;-71
2022/05/27 08:08:07;;;;;;;;;;;;;;;15.45;69.46;99490.86;107135;1268;124457;-70
2022/05/27 08:10:36;;;;;;;;;;;;;;;15.48;69.50;99492.91;106412;1267;110486;-72
2022/05/27 08:13:04;;;;;;;;;;;;;;;15.54;69.53;99484.64;106248;1268;124676;-69
2022/05/27 08:15:33;;;;;;;;;;;;;;;15.59;69.28;99478.05;106447;1268;108363;-71
2022/05/27 08:18:00;;;;;;;;;;;;;;;15.60;69.39;99480.95;106437;1268;96461;-71
2022/05/27 08:20:29;;;;;;;;;;;;;;;15.62;69.59;99478.20;106347;1268;125641;-71
2022/05/27 08:22:57;;;;;;;;;;;;;;;15.66;69.56;99474.62;106460;1268;110790;-69
2022/05/27 08:25:25;;;;;;;;;;;;;;;15.66;69.37;99472.67;106368;1268;124700;-71
2022/05/27 08:27:54;;;;;;;;;;;;;;;15.65;69.55;99474.35;106541;1268;108253;-71
2022/05/27 08:30:23;;;;;;;;;;;;;;;15.69;69.69;99483.34;106536;1268;96566;-72
2022/05/27 08:32:54;;;;;;;;;;;;;;;15.75;69.72;99483.19;106419;1268;126083;-70
2022/05/27 08:38:10;;;;;;;;;;;;;;;15.80;69.35;99483.52;106416;1268;124443;-71
2022/05/27 08:41:01;;;;;;;;;;;;;;;15.80;69.15;99488.23;106616;1268;108458;-71
2022/05/27 08:43:34;;;;;;;;;;;;;;;15.80;69.12;99485.79;106378;1268;124653;-71
2022/05/27 08:46:08;;;;;;;;;;;;;;;15.83;68.98;99487.73;106630;1268;96458;-72
2022/05/27 08:48:38;;;;;;;;;;;;;;;15.83;68.92;99486.48;106541;1268;111983;-73
2022/05/27 08:51:28;;;;;;;;;;;;;;;15.82;68.82;99488.66;106678;1268;109112;-73
2022/05/27 08:54:00;;;;;;;;;;;;;;;15.82;68.78;99496.34;106451;1268;109075;-73
2022/05/27 08:59:27;;;;;;;;;;;;;;;15.85;68.86;99501.29;106547;1268;97061;-73
2022/05/27 09:01:57;;;;;;;;;;;;;;;15.86;68.82;99508.69;106431;1268;124587;-70
2022/05/27 09:04:26;;;;;;;;;;;;;;;15.87;68.76;99506.75;106393;1268;109121;-71
2022/05/27 09:06:56;;;;;;;;;;;;;;;15.91;68.88;99507.83;106342;1268;124706;-70
2022/05/27 09:09:25;;;;;;;;;;;;;;;15.96;68.60;99504.17;106463;1270;96716;-71
2022/05/27 09:12:14;;;;;;;;;;;;;;;15.96;68.20;99510.14;106416;1268;96458;-72
2022/05/27 09:14:44;;;;;;;;;;;;;;;15.94;67.80;99504.13;106321;1268;124441;-71
2022/05/27 09:17:15;;;;;;;;;;;;;;;15.93;67.39;99509.96;106416;1268;108515;-71
2022/05/27 09:19:48;;;;;;;;;;;;;;;15.94;67.09;99499.05;106372;1268;124445;-72
2022/05/27 09:22:18;;;;;;;;;;;;;;;15.94;66.97;99491.86;106462;1267;96504;-72
2022/05/27 09:24:53;;;;;;;;;;;;;;;15.92;66.99;99501.14;106395;1268;96471;-72
2022/05/27 09:27:22;;;;;;;;;;;;;;;15.98;67.09;99498.63;106446;1268;110928;-70
2022/05/27 09:29:55;;;;;;;;;;;;;;;16.05;67.10;99491.89;106400;1269;109616;-70
2022/05/27 09:32:27;;;;;;;;;;;;;;;16.09;66.68;99489.63;106379;1268;124466;-71
2022/05/27 09:34:57;;;;;;;;;;;;;;;16.10;65.90;99490.77;106390;1268;96514;-71
2022/05/27 09:37:27;;;;;;;;;;;;;;;16.17;65.85;99503.52;107316;1267;125339;-71
2022/05/27 09:39:56;;;;;;;;;;;;;;;16.24;65.76;99508.60;106384;1268;111643;-72
2022/05/27 09:42:29;;;;;;;;;;;;;;;16.31;65.35;99498.63;106358;1267;107300;-72
2022/05/27 09:44:58;;;;;;;;;;;;;;;16.36;64.62;99502.90;106327;1267;124568;-70
2022/05/27 09:47:28;;;;;;;;;;;;;;;16.41;64.42;99503.81;107969;1267;94723;-72
2022/05/27 09:49:58;;;;;;;;;;;;;;;16.54;64.37;99510.47;107199;1266;124525;-71
2022/05/27 09:52:29;;;;;;;;;;;;;;;16.66;63.83;99516.66;107047;1268;111049;-72
2022/05/27 09:54:59;;;;;;;;;;;;;;;16.72;62.87;99518.41;106379;1268;125317;-70
2022/05/27 09:57:28;;;;;;;;;;;;;;;16.77;62.82;99514.86;107185;1267;108000;-68
2022/05/27 09:59:57;;;;;;;;;;;;;;;16.81;62.77;99524.91;106456;1270;97007;-72
2022/05/27 10:02:31;;;;;;;;;;;;;;;16.85;62.47;99527.11;106310;1268;123596;-74
2022/05/27 10:05:00;;;;;;;;;;;;;;;16.83;62.27;99527.21;106555;1268;111132;-72
2022/05/27 10:07:30;;;;;;;;;;;;;;;16.82;62.34;99534.34;106325;1268;124081;-70
2022/05/27 10:09:58;;;;;;;;;;;;;;;16.79;61.94;99527.04;106401;1267;108342;-72
2022/05/27 10:12:30;;;;;;;;;;;;;;;16.69;61.84;99517.88;106406;1268;96479;-72
2022/05/27 10:14:57;;;;;;;;;;;;;;;16.60;62.07;99523.02;106388;1268;123675;-71
2022/05/27 10:17:31;;;;;;;;;;;;;;;16.53;62.15;99524.55;106374;1269;96474;-72
2022/05/27 10:20:12;;;;;;;;;;;;;;;16.45;62.16;99525.66;106306;1269;123799;-72
2022/05/27 10:22:40;;;;;;;;;;;;;;;16.35;62.28;99492.08;106333;1270;108413;-71
2022/05/27 10:25:11;;;;;;;;;;;;;;;16.22;60.71;99475.45;107821;1267;125197;-71
2022/05/27 10:27:39;;;;;;;;;;;;;;;16.06;61.33;99493.36;107903;1268;94607;-71
2022/05/27 10:30:09;;;;;;;;;;;;;;;15.96;61.87;99512.23;107928;1268;109985;-71
2022/05/27 10:32:41;;;;;;;;;;;;;;;15.89;61.99;99507.98;107843;1267;123788;-71
2022/05/27 10:35:29;;;;;;;;;;;;;;;15.85;62.18;99495.30;107921;1268;109052;-71
2022/05/27 10:38:10;;;;;;;;;;;;;;;15.79;60.51;99483.94;107792;1268;123864;-71
2022/05/27 10:40:39;;;;;;;;;;;;;;;15.71;59.57;99447.10;106743;1268;96467;-70
2022/05/27 10:43:15;;;;;;;;;;;;;;;15.67;59.48;99433.86;106367;1267;123803;-71
2022/05/27 10:45:44;;;;;;;;;;;;;;;15.58;59.00;99450.73;106178;1268;316463;-70
2022/05/27 10:48:32;;;;;;;;;;;;;;;15.50;59.29;99428.35;106381;1268;108910;-71
2022/05/27 10:51:05;;;;;;;;;;;;;;;15.41;57.76;99387.34;106278;1268;124431;-70
2022/05/27 10:53:47;;;;;;;;;;;;;;;15.34;57.07;99388.91;106432;1268;96548;-72
2022/05/27 10:56:19;;;;;;;;;;;;;;;15.25;55.78;99405.44;107038;1268;123709;-67
2022/05/27 11:02:05;;;;;;;;;;;;;;;15.20;54.96;99423.27;106057;1273;124039;-72
2022/05/27 11:04:47;;;;;;;;;;;;;;;15.21;54.66;99425.52;106083;1274;96616;-73
2022/05/27 11:07:22;;;;;;;;;;;;;;;15.27;54.71;99420.04;106160;1273;123944;-72
2022/05/27 11:10:00;;;;;;;;;;;;;;;15.32;53.94;99416.02;107573;1274;109162;-73
2022/05/27 11:15:10;;;;;;;;;;;;;;;15.33;53.39;99424.67;107551;1274;109009;-73
2022/05/27 11:15:30;;;;;;;;;;;;;;;15.39;53.38;99417.46;107533;1274;107803;-72
2022/05/27 11:18:03;;;;;;;;;;;;;;;15.44;52.84;99408.23;107627;1273;95128;-73
2022/05/27 11:20:45;;;;;;;;;;;;;;;15.49;53.32;99439.43;107521;1273;123683;-72
2022/05/27 11:23:23;;;;;;;;;;;;;;;15.56;53.15;99428.45;107368;1273;110347;-73
2022/05/27 11:25:55;;;;;;;;;;;;;;;15.64;53.59;99418.65;106247;1273;123837;-72
2022/05/27 11:28:35;;;;;;;;;;;;;;;15.75;53.28;99406.04;106197;1273;107312;-72
2022/05/27 11:31:11;;;;;;;;;;;;;;;15.80;53.07;99409.02;106034;1273;124789;-69
2022/05/27 11:33:43;;;;;;;;;;;;;;;15.86;53.57;99418.45;107281;1273;94763;-74
2022/05/27 11:36:20;;;;;;;;;;;;;;;15.95;52.99;99414.15;107645;1273;110895;-80
2022/05/27 11:38:59;;;;;;;;;;;;;;;15.98;52.77;99413.96;106182;1268;123950;-72
2022/05/27 11:41:30;;;;;;;;;;;;;;;15.98;52.30;99411.65;106384;1270;109221;-74
2022/05/27 11:44:03;;;;;;;;;;;;;;;15.96;51.93;99420.01;107788;1268;124533;-72
2022/05/27 11:46:48;;;;;;;;;;;;;;;15.98;52.13;99418.98;107845;1268;94732;-72
2022/05/27 11:49:25;;;;;;;;;;;;;;;16.04;52.03;99423.02;107833;1267;124545;-71
2022/05/27 11:51:59;;;;;;;;;;;;;;;16.11;51.85;99438.30;107905;1268;108127;-73
2022/05/27 11:54:33;;;;;;;;;;;;;;;16.19;51.30;99418.63;107850;1268;107438;-73
2022/05/27 11:57:15;;;;;;;;;;;;;;;16.27;51.01;99413.88;107764;1268;124309;-72
2022/05/27 11:59:47;;;;;;;;;;;;;;;16.34;50.68;99419.00;107289;1268;96482;-76
2022/05/27 12:02:19;;;;;;;;;;;;;;;16.40;50.96;99419.48;107866;1268;123526;-74
2022/05/27 12:04:51;;;;;;;;;;;;;;;16.48;50.86;99415.42;107485;1266;107775;-75
2022/05/27 12:07:28;;;;;;;;;;;;;;;16.50;50.66;99411.41;106808;1268;124010;-72
2022/05/27 12:09:59;;;;;;;;;;;;;;;16.43;50.00;99404.17;106512;1268;96470;-72
2022/05/27 12:12:31;;;;;;;;;;;;;;;16.31;49.95;99394.81;107526;1267;94411;-73
2022/05/27 12:15:01;;;;;;;;;;;;;;;16.25;50.22;99381.05;106200;1268;124655;-72
2022/05/27 12:17:35;;;;;;;;;;;;;;;16.21;50.37;99377.83;106250;1268;107209;-73
2022/05/27 12:20:03;;;;;;;;;;;;;;;16.20;50.33;99373.89;106134;1268;124506;-74
2022/05/27 12:22:33;;;;;;;;;;;;;;;16.17;50.25;99397.73;107830;1267;94892;-74
2022/05/27 12:25:03;;;;;;;;;;;;;;;16.16;50.38;99388.86;107709;1268;124974;-74
2022/05/27 12:27:32;;;;;;;;;;;;;;;16.16;50.52;99376.06;107814;1267;109054;-75
2022/05/27 12:30:00;;;;;;;;;;;;;;;16.14;50.79;99391.06;107817;1267;108694;-73
2022/05/27 12:32:28;;;;;;;;;;;;;;;16.13;51.33;99397.27;107724;1267;124400;-72
2022/05/27 12:35:10;;;;;;;;;;;;;;;16.20;51.67;99397.02;107796;1268;94390;-72
2022/05/27 12:37:45;;;;;;;;;;;;;;;16.24;51.92;99393.55;107783;1267;125467;-73
2022/05/27 12:40:26;;;;;;;;;;;;;;;16.24;51.90;99392.85;107831;1267;111344;-73
2022/05/27 12:42:55;;;;;;;;;;;;;;;16.25;51.87;99392.41;106995;1268;123972;-73
2022/05/27 12:45:36;;;;;;;;;;;;;;;16.24;51.60;99382.15;107830;1267;108934;-74
2022/05/27 12:48:05;;;;;;;;;;;;;;;16.23;51.78;99378.67;107837;1267;94686;-74
2022/05/27 12:50:35;;;;;;;;;;;;;;;16.23;51.71;99375.18;106777;1267;123576;-73
2022/05/27 12:53:15;;;;;;;;;;;;;;;16.21;51.59;99378.89;106394;1267;109744;-72
2022/05/27 13:01:25;;;;;;;;;;;;;;;16.26;52.08;99345.02;107760;1267;124694;-73
2022/05/27 13:03:54;;;;;;;;;;;;;;;16.46;52.26;99360.98;107877;1268;94949;-74
2022/05/27 13:06:35;;;;;;;;;;;;;;;16.65;52.15;99355.45;107314;1268;111158;-74
2022/05/27 13:09:05;;;;;;;;;;;;;;;16.71;51.86;99349.91;106299;1268;124926;-73
2022/05/27 13:11:46;;;;;;;;;;;;;;;16.78;51.80;99347.80;106338;1268;108245;-74
2022/05/27 13:14:16;;;;;;;;;;;;;;;16.83;51.28;99346.62;106270;1268;123918;-75